createdAt,value
2022-10-07T00:00:29.932Z,5.95
2022-10-07T00:02:56.453Z,5.57
2022-10-07T00:05:22.944Z,7.60
2022-10-07T00:07:49.496Z,7.15
2022-10-07T00:10:16.061Z,4.70
2022-10-07T00:12:42.589Z,4.05
2022-10-07T00:15:09.812Z,6.72
2022-10-07T00:17:36.761Z,6.38
2022-10-07T00:20:03.517Z,5.18
2022-10-07T00:22:31.084Z,6.53
2022-10-07T00:24:57.640Z,7.28
2022-10-07T00:27:24.225Z,6.43
2022-10-07T00:29:52.629Z,4.80
2022-10-07T00:32:19.154Z,7.13
2022-10-07T00:34:46.347Z,10.60
2022-10-07T00:37:13.738Z,6.07
2022-10-07T00:39:42.334Z,4.80
2022-10-07T00:42:13.624Z,6.35
2022-10-07T00:44:48.651Z,8.77
2022-10-07T00:47:27.992Z,5.13
2022-10-07T00:50:00.416Z,6.32
2022-10-07T00:52:30.350Z,8.07
2022-10-07T00:54:59.046Z,10.93
2022-10-07T00:57:29.329Z,8.05
2022-10-07T00:59:57.107Z,9.57
2022-10-07T01:02:25.919Z,8.18
2022-10-07T01:04:54.758Z,7.25
2022-10-07T01:07:21.633Z,5.47
2022-10-07T01:09:51.276Z,7.97
2022-10-07T01:12:32.778Z,4.63
2022-10-07T01:15:10.572Z,5.15
2022-10-07T01:18:01.698Z,5.22
2022-10-07T01:20:28.021Z,6.20
2022-10-07T01:23:01.148Z,6.90
2022-10-07T01:25:46.301Z,7.28
2022-10-07T01:28:28.944Z,7.38
2022-10-07T01:31:00.272Z,6.88
2022-10-07T01:33:30.278Z,9.70
2022-10-07T01:36:02.601Z,6.18
2022-10-07T01:38:31.456Z,11.95
2022-10-07T01:41:08.083Z,5.43
2022-10-07T01:43:36.946Z,11.45
2022-10-07T01:46:07.516Z,7.07
2022-10-07T01:48:35.421Z,7.10
2022-10-07T01:51:02.268Z,8.43
2022-10-07T01:53:39.910Z,11.40
2022-10-07T01:56:27.198Z,11.60
2022-10-07T01:59:34.461Z,10.85
2022-10-07T02:02:13.648Z,9.05
2022-10-07T02:04:59.109Z,6.20
2022-10-07T02:07:34.590Z,6.30
2022-10-07T02:10:21.243Z,7.85
2022-10-07T02:12:57.312Z,6.95
2022-10-07T02:15:38.967Z,10.32
2022-10-07T02:18:09.860Z,6.15
2022-10-07T02:20:39.834Z,8.20
2022-10-07T02:23:10.178Z,16.33
2022-10-07T02:25:40.530Z,8.80
2022-10-07T02:28:09.260Z,7.57
2022-10-07T02:30:37.682Z,6.65
2022-10-07T02:33:07.457Z,7.63
2022-10-07T02:35:57.980Z,6.05
2022-10-07T02:38:26.115Z,6.50
2022-10-07T02:41:05.992Z,6.15
2022-10-07T02:43:56.224Z,6.80
2022-10-07T02:46:29.659Z,10.63
2022-10-07T02:49:02.874Z,6.05
2022-10-07T02:51:36.789Z,12.43
2022-10-07T02:54:05.073Z,8.18
2022-10-07T02:56:35.325Z,5.90
2022-10-07T02:59:03.398Z,7.13
2022-10-07T03:01:33.898Z,7.55
2022-10-07T03:04:00.960Z,6.57
2022-10-07T03:06:29.561Z,6.25
2022-10-07T03:09:00.184Z,5.03
2022-10-07T03:11:26.678Z,8.50
2022-10-07T03:13:53.734Z,6.82
2022-10-07T03:16:20.419Z,5.55
2022-10-07T03:18:46.888Z,7.10
2022-10-07T03:21:20.061Z,9.63
2022-10-07T03:23:53.177Z,9.75
2022-10-07T03:26:21.951Z,5.10
2022-10-07T03:28:49.146Z,6.25
2022-10-07T03:31:15.891Z,12.07
2022-10-07T03:33:46.954Z,7.72
2022-10-07T03:36:13.645Z,7.38
2022-10-07T03:38:42.758Z,6.82
2022-10-07T03:41:10.818Z,6.15
2022-10-07T03:43:38.239Z,6.63
2022-10-07T03:46:06.425Z,7.35
2022-10-07T03:48:35.840Z,6.05
2022-10-07T03:51:02.555Z,12.05
2022-10-07T03:53:30.951Z,5.13
2022-10-07T03:55:59.985Z,5.53
2022-10-07T03:58:27.328Z,6.32
2022-10-07T04:01:04.525Z,6.60
2022-10-07T04:03:31.113Z,6.28
2022-10-07T04:05:59.587Z,6.88
2022-10-07T04:08:29.014Z,6.83
2022-10-07T04:10:57.254Z,7.65
2022-10-07T04:13:24.193Z,9.68
2022-10-07T04:15:52.667Z,10.85
2022-10-07T04:18:21.069Z,7.07
2022-10-07T04:20:48.218Z,10.05
2022-10-07T04:23:16.505Z,6.60
2022-10-07T04:25:44.991Z,9.50
2022-10-07T04:28:18.115Z,6.57
2022-10-07T04:30:51.037Z,9.35
2022-10-07T04:33:21.884Z,8.55
2022-10-07T04:35:50.173Z,6.10
2022-10-07T04:38:18.445Z,9.75
2022-10-07T04:40:49.910Z,11.45
2022-10-07T04:43:20.882Z,7.93
2022-10-07T04:46:05.905Z,9.43
2022-10-07T04:48:35.773Z,6.25
2022-10-07T04:51:08.253Z,7.60
2022-10-07T04:53:38.302Z,7.25
2022-10-07T04:56:05.306Z,13.23
2022-10-07T04:58:32.601Z,16.50
2022-10-07T05:01:01.731Z,16.30
2022-10-07T05:03:30.090Z,18.75
2022-10-07T05:06:05.900Z,21.33
2022-10-07T05:08:33.969Z,10.35
2022-10-07T05:11:02.223Z,15.80
2022-10-07T05:13:33.620Z,6.57
2022-10-07T05:16:02.757Z,6.18
2022-10-07T05:18:31.035Z,18.90
2022-10-07T05:21:07.230Z,7.80
2022-10-07T05:23:38.961Z,7.97
2022-10-07T05:26:11.037Z,6.95
2022-10-07T05:28:41.754Z,8.27
2022-10-07T05:31:14.747Z,7.47
2022-10-07T05:33:46.005Z,8.40
2022-10-07T05:36:12.496Z,8.02
2022-10-07T05:38:39.866Z,7.22
2022-10-07T05:41:09.889Z,8.07
2022-10-07T05:43:43.023Z,7.90
2022-10-07T05:46:15.714Z,8.35
2022-10-07T05:48:48.455Z,13.95
2022-10-07T05:51:15.880Z,9.43
2022-10-07T05:53:43.067Z,8.45
2022-10-07T05:56:12.599Z,10.65
2022-10-07T05:58:39.720Z,13.10
2022-10-07T06:01:14.625Z,10.90
2022-10-07T06:03:43.676Z,8.85
2022-10-07T06:06:10.604Z,11.23
2022-10-07T06:08:37.104Z,10.73
2022-10-07T06:11:23.939Z,11.70
2022-10-07T06:13:52.130Z,8.75
2022-10-07T06:16:19.829Z,11.38
2022-10-07T06:18:50.361Z,13.63
2022-10-07T06:21:23.650Z,8.57
2022-10-07T06:23:52.009Z,9.57
2022-10-07T06:26:22.530Z,12.10
2022-10-07T06:28:49.721Z,9.82
2022-10-07T06:31:24.540Z,10.00
2022-10-07T06:33:54.886Z,8.68
2022-10-07T06:36:23.171Z,9.82
2022-10-07T06:38:54.166Z,16.40
2022-10-07T06:41:25.867Z,9.93
2022-10-07T06:44:04.777Z,6.88
2022-10-07T06:46:31.366Z,9.35
2022-10-07T06:48:58.212Z,10.63
2022-10-07T06:51:25.421Z,10.15
2022-10-07T06:53:54.798Z,7.10
2022-10-07T06:56:21.440Z,8.75
2022-10-07T06:58:49.705Z,15.50
2022-10-07T07:01:22.760Z,11.52
2022-10-07T07:03:49.389Z,12.18
2022-10-07T07:06:15.858Z,8.45
2022-10-07T07:08:42.336Z,9.15
2022-10-07T07:11:31.927Z,8.20
2022-10-07T07:14:04.713Z,7.30
2022-10-07T07:16:31.913Z,8.85
2022-10-07T07:19:04.032Z,8.35
2022-10-07T07:21:31.534Z,10.45
2022-10-07T07:23:58.810Z,12.52
2022-10-07T07:26:27.974Z,9.35
2022-10-07T07:28:59.201Z,14.00
2022-10-07T07:31:30.017Z,8.38
2022-10-07T07:34:00.621Z,12.40
2022-10-07T07:36:29.737Z,11.02
2022-10-07T07:38:58.920Z,8.95
2022-10-07T07:41:28.458Z,9.82
2022-10-07T07:43:58.423Z,14.77
2022-10-07T07:46:27.829Z,11.60
2022-10-07T07:48:55.462Z,11.73
2022-10-07T07:51:22.685Z,8.57
2022-10-07T07:53:50.244Z,10.27
2022-10-07T07:56:18.560Z,11.57
2022-10-07T07:58:45.535Z,12.35
2022-10-07T08:01:15.773Z,10.57
2022-10-07T08:03:46.375Z,9.05
2022-10-07T08:06:15.618Z,13.40
2022-10-07T08:08:43.141Z,9.43
2022-10-07T08:11:13.237Z,9.05
2022-10-07T08:13:41.761Z,7.68
2022-10-07T08:16:13.280Z,8.48
2022-10-07T08:18:42.959Z,12.90
2022-10-07T08:21:10.565Z,8.32
2022-10-07T08:23:38.353Z,12.90
2022-10-07T08:26:07.440Z,9.20
2022-10-07T08:28:35.649Z,7.97
2022-10-07T08:31:14.429Z,14.50
2022-10-07T08:33:44.895Z,9.98
2022-10-07T08:36:16.991Z,11.95
2022-10-07T08:38:51.114Z,8.00
2022-10-07T08:41:45.724Z,11.10
2022-10-07T08:44:17.999Z,10.75
2022-10-07T08:47:34.572Z,12.60
2022-10-07T08:50:18.088Z,7.07
2022-10-07T08:52:51.884Z,9.32
2022-10-07T08:55:43.758Z,7.68
2022-10-07T08:58:47.688Z,10.45
2022-10-07T09:01:59.758Z,8.35
2022-10-07T09:04:48.113Z,12.82
2022-10-07T09:07:18.892Z,12.82
2022-10-07T09:09:56.843Z,15.55
2022-10-07T09:12:30.378Z,9.88
2022-10-07T09:14:59.230Z,11.38
2022-10-07T09:17:38.155Z,10.50
2022-10-07T09:20:19.230Z,10.13
2022-10-07T09:22:54.833Z,10.00
2022-10-07T09:25:24.477Z,19.45
2022-10-07T09:27:52.237Z,9.00
2022-10-07T09:30:20.130Z,10.38
2022-10-07T09:32:49.148Z,17.65
2022-10-07T09:35:22.683Z,9.80
2022-10-07T09:38:01.596Z,15.05
2022-10-07T09:40:33.001Z,13.43
2022-10-07T09:43:00.397Z,12.75
2022-10-07T09:45:31.314Z,14.27
2022-10-07T09:48:07.510Z,14.80
2022-10-07T09:50:39.280Z,12.23
2022-10-07T09:53:23.920Z,13.50
2022-10-07T09:55:53.076Z,14.73
2022-10-07T09:58:21.170Z,13.27
2022-10-07T10:00:50.509Z,12.05
2022-10-07T10:03:17.664Z,12.40
2022-10-07T10:05:51.805Z,15.35
2022-10-07T10:08:18.158Z,13.32
2022-10-07T10:10:56.469Z,13.40
2022-10-07T10:13:32.176Z,14.70
2022-10-07T10:15:59.814Z,15.05
2022-10-07T10:18:36.991Z,13.25
2022-10-07T10:21:29.297Z,12.23
2022-10-07T10:24:01.362Z,14.48
2022-10-07T10:27:06.731Z,15.63
2022-10-07T10:29:57.196Z,18.52
2022-10-07T10:32:32.566Z,12.87
2022-10-07T10:35:16.130Z,10.73
2022-10-07T10:38:13.869Z,11.02
2022-10-07T10:40:47.981Z,14.02
2022-10-07T10:43:50.652Z,12.18
2022-10-07T10:46:39.308Z,12.15
2022-10-07T10:49:33.802Z,14.30
2022-10-07T10:52:36.971Z,16.42
2022-10-07T10:55:14.036Z,15.35
2022-10-07T10:57:43.097Z,15.57
2022-10-07T11:00:20.203Z,11.98
2022-10-07T11:03:13.734Z,15.52
2022-10-07T11:05:42.441Z,13.57
2022-10-07T11:08:19.864Z,14.77
2022-10-07T11:10:59.721Z,11.20
2022-10-07T11:13:44.034Z,12.40
2022-10-07T11:16:24.983Z,11.27
2022-10-07T11:19:16.378Z,10.85
2022-10-07T11:21:51.171Z,11.45
2022-10-07T11:24:26.578Z,16.10
2022-10-07T11:27:18.007Z,12.70
2022-10-07T11:29:53.678Z,11.02
2022-10-07T11:32:29.228Z,22.58
2022-10-07T11:35:14.354Z,14.60
2022-10-07T11:37:50.192Z,13.70
2022-10-07T11:40:16.800Z,12.82
2022-10-07T11:42:49.916Z,12.02
2022-10-07T11:45:22.645Z,10.82
2022-10-07T11:48:05.202Z,13.70
2022-10-07T11:50:37.654Z,15.57
2022-10-07T11:53:26.343Z,11.80
2022-10-07T11:56:23.756Z,11.10
2022-10-07T11:59:01.891Z,11.70
2022-10-07T12:01:31.948Z,12.93
2022-10-07T12:04:00.158Z,11.50
2022-10-07T12:06:26.667Z,14.07
2022-10-07T12:08:53.703Z,13.90
2022-10-07T12:11:20.477Z,14.75
2022-10-07T12:13:50.623Z,17.70
2022-10-07T12:16:23.094Z,13.40
2022-10-07T12:19:12.789Z,13.65
2022-10-07T12:22:02.135Z,15.88
2022-10-07T12:24:36.863Z,15.15
2022-10-07T12:27:24.408Z,14.35
2022-10-07T12:29:58.555Z,14.43
2022-10-07T12:32:42.530Z,16.83
2022-10-07T12:35:34.177Z,41.35
2022-10-07T12:38:14.227Z,17.58
2022-10-07T12:40:42.413Z,17.40
2022-10-07T12:43:24.949Z,19.15
2022-10-07T12:45:52.600Z,22.60
2022-10-07T12:48:22.421Z,14.07
2022-10-07T12:50:52.723Z,17.20
2022-10-07T12:53:24.469Z,17.63
2022-10-07T12:55:54.495Z,18.42
2022-10-07T12:59:00.555Z,20.98
2022-10-07T13:01:48.910Z,46.97
2022-10-07T13:04:27.771Z,21.08
2022-10-07T13:07:18.128Z,18.50
2022-10-07T13:10:09.299Z,25.13
2022-10-07T13:12:44.910Z,19.50
2022-10-07T13:15:26.992Z,20.08
2022-10-07T13:18:10.811Z,20.60
2022-10-07T13:20:41.504Z,19.20
2022-10-07T13:23:17.341Z,28.20
2022-10-07T13:25:47.586Z,26.38
2022-10-07T13:28:16.903Z,17.75
2022-10-07T13:30:45.544Z,29.35
2022-10-07T13:33:28.374Z,23.42
2022-10-07T13:36:13.930Z,22.48
2022-10-07T13:38:40.397Z,24.33
2022-10-07T13:41:15.288Z,29.17
2022-10-07T13:43:44.507Z,20.77
2022-10-07T13:46:12.570Z,26.83
2022-10-07T13:48:45.684Z,24.70
2022-10-07T13:51:27.256Z,22.65
2022-10-07T13:56:33.542Z,26.10
2022-10-07T13:59:01.294Z,27.40
2022-10-07T14:01:30.337Z,25.08
2022-10-07T14:04:01.721Z,33.25
2022-10-07T14:07:09.355Z,29.02
2022-10-07T14:09:55.852Z,42.65
2022-10-07T14:12:29.392Z,38.58
2022-10-07T14:15:02.454Z,29.17
2022-10-07T14:17:52.968Z,34.33
2022-10-07T14:20:25.080Z,33.13
2022-10-07T14:22:54.799Z,36.13
2022-10-07T14:25:24.074Z,42.30
2022-10-07T14:27:53.592Z,37.13
2022-10-07T14:30:29.204Z,26.08
2022-10-07T14:33:28.756Z,31.30
2022-10-07T14:36:17.071Z,34.58
2022-10-07T14:38:46.472Z,29.02
2022-10-07T14:41:14.626Z,37.88
2022-10-07T14:43:45.028Z,27.75
2022-10-07T14:46:25.437Z,30.42
2022-10-07T14:48:53.695Z,30.80
2022-10-07T14:51:26.949Z,35.95
2022-10-07T14:54:01.651Z,28.55
2022-10-07T14:56:30.979Z,28.25
2022-10-07T14:58:57.776Z,26.73
2022-10-07T15:01:26.498Z,29.80
2022-10-07T15:03:53.015Z,26.20
2022-10-07T15:06:20.422Z,27.35
2022-10-07T15:08:48.399Z,30.77
2022-10-07T15:11:19.936Z,32.00
2022-10-07T15:13:47.771Z,31.40
2022-10-07T15:16:20.351Z,36.30
2022-10-07T15:18:52.106Z,30.27
2022-10-07T15:21:20.550Z,29.00
2022-10-07T15:23:53.694Z,32.92
2022-10-07T15:26:23.333Z,25.58
2022-10-07T15:28:54.868Z,28.98
2022-10-07T15:31:23.316Z,31.35
2022-10-07T15:33:50.661Z,27.77
2022-10-07T15:36:17.787Z,30.20
2022-10-07T15:38:44.315Z,34.08
2022-10-07T15:41:29.442Z,39.13
2022-10-07T15:44:00.446Z,37.25
2022-10-07T15:46:27.905Z,32.58
2022-10-07T15:48:59.202Z,34.33
2022-10-07T15:53:55.484Z,37.55
2022-10-07T15:56:22.032Z,35.05
2022-10-07T15:58:48.435Z,35.10
2022-10-07T16:01:15.424Z,35.50
2022-10-07T16:03:44.808Z,30.95
2022-10-07T16:06:15.771Z,31.65
2022-10-07T16:08:42.259Z,28.40
2022-10-07T16:11:10.845Z,31.13
2022-10-07T16:13:38.622Z,31.27
2022-10-07T16:16:07.748Z,31.27
2022-10-07T16:18:37.021Z,30.73
2022-10-07T16:21:08.299Z,32.60
2022-10-07T16:26:10.728Z,29.60
2022-10-07T16:29:00.599Z,37.42
2022-10-07T16:33:55.702Z,31.00
2022-10-07T16:36:23.965Z,30.17
2022-10-07T16:38:51.986Z,27.73
2022-10-07T16:41:21.376Z,32.03
2022-10-07T16:43:47.753Z,29.40
2022-10-07T16:46:18.409Z,33.92
2022-10-07T16:48:46.732Z,32.20
2022-10-07T16:51:17.347Z,36.40
2022-10-07T16:53:46.099Z,30.50
2022-10-07T16:56:17.920Z,31.65
2022-10-07T16:58:45.010Z,28.75
2022-10-07T17:01:14.087Z,28.95
2022-10-07T17:03:42.675Z,32.33
2022-10-07T17:06:13.407Z,27.10
2022-10-07T17:08:42.880Z,28.15
2022-10-07T17:11:31.125Z,29.00
2022-10-07T17:14:00.696Z,29.35
2022-10-07T17:16:29.587Z,32.15
2022-10-07T17:18:56.293Z,30.52
2022-10-07T17:21:23.189Z,32.42
2022-10-07T17:23:50.041Z,30.38
2022-10-07T17:26:17.573Z,30.42
2022-10-07T17:28:44.096Z,28.70
2022-10-07T17:31:13.438Z,29.77
2022-10-07T17:33:42.348Z,30.33
2022-10-07T17:36:10.454Z,29.42
2022-10-07T17:38:38.782Z,27.08
2022-10-07T17:41:11.259Z,29.15
2022-10-07T17:43:37.745Z,31.15
2022-10-07T17:46:06.934Z,28.98
2022-10-07T17:48:37.269Z,30.30
2022-10-07T17:51:04.849Z,30.63
2022-10-07T17:53:32.843Z,26.70
2022-10-07T17:55:59.845Z,28.85
2022-10-07T17:58:26.670Z,33.10
2022-10-07T18:00:53.160Z,30.70
2022-10-07T18:03:19.564Z,26.90
2022-10-07T18:05:53.016Z,30.65
2022-10-07T18:08:20.196Z,32.33
2022-10-07T18:10:50.715Z,25.95
2022-10-07T18:13:35.660Z,31.80
2022-10-07T18:16:04.314Z,30.23
2022-10-07T18:18:31.484Z,29.27
2022-10-07T18:21:05.109Z,30.30
2022-10-07T18:23:32.014Z,29.17
2022-10-07T18:26:02.766Z,26.80
2022-10-07T18:28:32.707Z,29.40
2022-10-07T18:30:59.097Z,30.20
2022-10-07T18:33:25.513Z,33.50
2022-10-07T18:36:09.993Z,27.88
2022-10-07T18:38:39.544Z,32.35
2022-10-07T18:41:08.855Z,30.95
2022-10-07T18:43:35.524Z,30.17
2022-10-07T18:46:05.485Z,31.35
2022-10-07T18:48:33.494Z,29.85
2022-10-07T18:51:00.644Z,28.63
2022-10-07T18:53:31.595Z,30.85
2022-10-07T18:56:09.085Z,30.02
2022-10-07T18:58:37.466Z,30.30
2022-10-07T19:01:15.189Z,30.88
2022-10-07T19:03:42.485Z,35.25
2022-10-07T19:06:11.945Z,30.88
2022-10-07T19:08:38.794Z,31.40
2022-10-07T19:11:16.464Z,28.65
2022-10-07T19:13:47.752Z,28.40
2022-10-07T19:18:46.494Z,33.08
2022-10-07T19:21:13.990Z,33.88
2022-10-07T19:23:41.016Z,30.38
2022-10-07T19:26:08.344Z,32.30
2022-10-07T19:28:36.702Z,27.65
2022-10-07T19:31:24.735Z,29.60
2022-10-07T19:33:55.269Z,32.45
2022-10-07T19:36:23.164Z,32.40
2022-10-07T19:38:53.421Z,32.50
2022-10-07T19:41:23.455Z,35.67
2022-10-07T19:43:50.465Z,34.60
2022-10-07T19:46:19.081Z,34.33
2022-10-07T19:48:45.860Z,39.42
2022-10-07T19:51:17.991Z,39.35
2022-10-07T19:53:47.256Z,37.53
2022-10-07T19:56:28.065Z,35.13
2022-10-07T19:59:03.700Z,41.35
2022-10-07T20:01:32.426Z,40.50
2022-10-07T20:04:01.353Z,35.60
2022-10-07T20:06:28.181Z,38.00
2022-10-07T20:08:55.753Z,42.63
2022-10-07T20:11:23.037Z,38.13
2022-10-07T20:13:49.709Z,35.53
2022-10-07T20:16:19.100Z,42.42
2022-10-07T20:18:48.558Z,35.03
2022-10-07T20:21:17.576Z,39.53
2022-10-07T20:23:46.720Z,36.65
2022-10-07T20:26:18.621Z,39.00
2022-10-07T20:28:51.200Z,34.22
2022-10-07T20:31:21.188Z,40.47
2022-10-07T20:33:49.961Z,38.88
2022-10-07T20:36:21.385Z,37.33
2022-10-07T20:39:11.852Z,40.63
2022-10-07T20:42:06.138Z,40.88
2022-10-07T20:44:32.749Z,41.72
2022-10-07T20:46:59.112Z,43.00
2022-10-07T20:49:28.451Z,35.35
2022-10-07T20:51:57.314Z,38.47
2022-10-07T20:54:25.213Z,40.30
2022-10-07T20:56:52.269Z,39.50
2022-10-07T20:59:19.400Z,44.63
2022-10-07T21:01:46.288Z,41.08
2022-10-07T21:04:15.131Z,39.47
2022-10-07T21:06:42.806Z,35.78
2022-10-07T21:09:10.712Z,36.38
2022-10-07T21:11:37.657Z,35.33
2022-10-07T21:14:04.445Z,27.55
2022-10-07T21:16:32.403Z,30.52
2022-10-07T21:18:58.876Z,35.00
2022-10-07T21:21:25.444Z,36.85
2022-10-07T21:23:52.751Z,37.50
2022-10-07T21:26:20.152Z,33.97
2022-10-07T21:28:48.230Z,34.63
2022-10-07T21:31:17.737Z,37.85
2022-10-07T21:33:49.748Z,34.70
2022-10-07T21:36:18.838Z,36.45
2022-10-07T21:38:47.414Z,34.85
2022-10-07T21:41:17.584Z,37.92
2022-10-07T21:43:49.037Z,34.05
2022-10-07T21:46:16.430Z,41.15
2022-10-07T21:48:43.433Z,39.70
2022-10-07T21:51:10.205Z,34.15
2022-10-07T21:53:36.942Z,34.20
2022-10-07T21:56:05.367Z,38.42
2022-10-07T21:58:33.231Z,41.10
2022-10-07T22:01:07.645Z,35.58
2022-10-07T22:03:34.617Z,38.08
2022-10-07T22:06:02.768Z,29.13
2022-10-07T22:08:35.105Z,35.00
2022-10-07T22:11:19.104Z,32.00
2022-10-07T22:13:55.086Z,32.67
2022-10-07T22:16:22.886Z,38.00
2022-10-07T22:18:51.398Z,29.08
2022-10-07T22:21:28.317Z,35.17
2022-10-07T22:24:02.650Z,33.60
2022-10-07T22:26:32.626Z,34.35
2022-10-07T22:28:59.385Z,30.58
2022-10-07T22:31:26.531Z,28.20
2022-10-07T22:34:00.681Z,30.33
2022-10-07T22:36:28.202Z,32.88
2022-10-07T22:38:56.420Z,32.42
2022-10-07T22:41:24.525Z,32.90
2022-10-07T22:43:52.763Z,30.00
2022-10-07T22:46:28.116Z,28.70
2022-10-07T22:48:58.277Z,29.00
2022-10-07T22:51:28.381Z,26.50
2022-10-07T22:53:56.583Z,29.73
2022-10-07T22:56:25.962Z,31.00
2022-10-07T22:58:58.693Z,29.63
2022-10-07T23:01:29.274Z,26.45
2022-10-07T23:03:56.859Z,34.25
2022-10-07T23:06:23.292Z,34.30
2022-10-07T23:08:49.735Z,33.03
2022-10-07T23:11:19.434Z,32.42
2022-10-07T23:13:46.405Z,31.13
2022-10-07T23:16:16.295Z,30.95
2022-10-07T23:18:44.752Z,34.50
2022-10-07T23:21:16.871Z,35.13
2022-10-07T23:23:46.573Z,38.38
2022-10-07T23:26:21.394Z,37.88
2022-10-07T23:28:49.282Z,35.85
2022-10-07T23:31:18.372Z,34.00
2022-10-07T23:33:47.297Z,32.30
2022-10-07T23:36:15.142Z,38.05
2022-10-07T23:38:44.841Z,32.30
2022-10-07T23:41:13.003Z,38.35
2022-10-07T23:43:39.493Z,35.03
2022-10-07T23:46:08.105Z,33.80
2022-10-07T23:48:35.191Z,34.30
2022-10-07T23:51:05.876Z,35.67
2022-10-07T23:53:33.657Z,33.15
2022-10-07T23:56:00.952Z,39.03
2022-10-07T23:58:29.674Z,36.17
